Time;durP1;ratioP1;P1;durP2;ratioP2;P2;SDS_P1;SDS_P2;PMS_P1;PMS_P2;Temp;Humidity;BMP_temperature;BMP_pressure;BME280_temperature;BME280_humidity;BME280_pressure;Samples;Min_cycle;Max_cycle;Signal;HPM_P1;HPM_P2
2023/12/04 00:04:30;;;;;;;0.50;0.50;;;;;;;;;;6235132;22;20009;-91
2023/12/04 00:06:57;;;;;;;0.60;0.60;;;;;;;;;;6235393;23;20457;-91
2023/12/04 00:09:24;;;;;;;0.50;0.50;;;;;;;;;;6207369;23;20031;-92
2023/12/04 00:11:50;;;;;;;0.50;0.50;;;;;;;;;;6206606;23;20023;-91
2023/12/04 00:14:16;;;;;;;0.50;0.50;;;;;;;;;;6204292;23;20015;-93
2023/12/04 00:16:42;;;;;;;0.50;0.50;;;;;;;;;;6207849;23;20020;-92
2023/12/04 00:19:09;;;;;;;0.50;0.50;;;;;;;;;;6206806;23;20078;-91
2023/12/04 00:21:35;;;;;;;0.50;0.50;;;;;;;;;;6205888;23;20013;-92
2023/12/04 00:24:37;;;;;;;0.47;0.47;;;;;;;;;;6209182;23;20017;-92
2023/12/04 00:27:03;;;;;;;0.50;0.50;;;;;;;;;;6206003;23;20020;-91
2023/12/04 00:29:29;;;;;;;0.43;0.43;;;;;;;;;;6206837;23;20021;-91
2023/12/04 00:31:58;;;;;;;0.50;0.50;;;;;;;;;;6231747;23;20024;-91
2023/12/04 00:34:24;;;;;;;0.50;0.50;;;;;;;;;;6203376;23;20078;-93
2023/12/04 00:36:50;;;;;;;0.50;0.50;;;;;;;;;;6203280;23;20019;-91
2023/12/04 00:39:17;;;;;;;0.50;0.50;;;;;;;;;;6206554;23;20027;-91
2023/12/04 00:41:48;;;;;;;0.50;0.50;;;;;;;;;;6205685;23;20044;-89
2023/12/04 00:44:24;;;;;;;0.50;0.50;;;;;;;;;;6200883;23;20039;-90
2023/12/04 00:46:51;;;;;;;0.50;0.50;;;;;;;;;;6203639;23;20023;-90
2023/12/04 00:49:18;;;;;;;0.50;0.50;;;;;;;;;;6201795;23;20017;-88
2023/12/04 00:51:44;;;;;;;0.40;0.40;;;;;;;;;;6206369;23;20017;-90
2023/12/04 00:54:11;;;;;;;0.50;0.50;;;;;;;;;;6204395;23;20074;-91
2023/12/04 00:56:41;;;;;;;0.50;0.50;;;;;;;;;;6201819;23;20019;-88
2023/12/04 00:59:13;;;;;;;0.50;0.50;;;;;;;;;;6227516;23;20063;-89
2023/12/04 01:01:41;;;;;;;0.50;0.50;;;;;;;;;;6228584;23;20012;-91
2023/12/04 01:04:11;;;;;;;0.57;0.57;;;;;;;;;;6232482;22;20013;-90
2023/12/04 01:06:37;;;;;;;0.60;0.60;;;;;;;;;;6229774;23;20049;-90
2023/12/04 01:09:04;;;;;;;0.60;0.60;;;;;;;;;;6228880;23;20019;-90
2023/12/04 01:11:31;;;;;;;0.50;0.50;;;;;;;;;;6203887;23;20337;-89
2023/12/04 01:13:57;;;;;;;0.50;0.50;;;;;;;;;;6201653;23;20056;-90
2023/12/04 01:16:23;;;;;;;0.60;0.60;;;;;;;;;;6229065;23;20012;-90
2023/12/04 01:18:50;;;;;;;0.60;0.60;;;;;;;;;;6203197;23;20044;-90
2023/12/04 01:21:22;;;;;;;0.50;0.50;;;;;;;;;;6227309;23;20012;-89
2023/12/04 01:23:48;;;;;;;0.47;0.47;;;;;;;;;;6226538;23;20047;-89
2023/12/04 01:26:15;;;;;;;0.50;0.50;;;;;;;;;;6226616;23;20016;-90
2023/12/04 01:28:41;;;;;;;0.50;0.50;;;;;;;;;;6230747;23;20021;-91
2023/12/04 01:31:08;;;;;;;0.50;0.50;;;;;;;;;;6228175;23;20013;-90
2023/12/04 01:33:34;;;;;;;0.50;0.50;;;;;;;;;;6198955;23;20492;-88
2023/12/04 01:36:00;;;;;;;0.50;0.50;;;;;;;;;;6202340;23;20038;-91
2023/12/04 01:38:26;;;;;;;0.50;0.50;;;;;;;;;;6179204;23;20023;-90
2023/12/04 01:40:52;;;;;;;0.50;0.50;;;;;;;;;;6204545;23;20019;-91
2023/12/04 01:43:18;;;;;;;0.50;0.50;;;;;;;;;;6200806;23;20366;-89
2023/12/04 01:45:45;;;;;;;0.50;0.50;;;;;;;;;;6227259;23;20016;-91
2023/12/04 01:48:14;;;;;;;0.50;0.50;;;;;;;;;;6204911;23;20020;-90
2023/12/04 01:50:57;;;;;;;0.50;0.50;;;;;;;;;;6201743;23;20076;-90
2023/12/04 01:53:23;;;;;;;0.50;0.50;;;;;;;;;;6204851;23;20039;-88
2023/12/04 01:55:49;;;;;;;0.50;0.50;;;;;;;;;;6228036;23;20021;-90
2023/12/04 01:58:16;;;;;;;0.60;0.60;;;;;;;;;;6203860;23;20013;-90
2023/12/04 02:00:42;;;;;;;0.50;0.50;;;;;;;;;;6204058;23;20016;-90
2023/12/04 02:03:08;;;;;;;0.50;0.50;;;;;;;;;;6231154;23;20020;-91
2023/12/04 02:05:35;;;;;;;0.60;0.60;;;;;;;;;;6203959;23;20016;-91
2023/12/04 02:08:01;;;;;;;0.50;0.50;;;;;;;;;;6204178;23;20040;-89
2023/12/04 02:10:29;;;;;;;0.50;0.50;;;;;;;;;;6229142;23;20018;-90
2023/12/04 02:12:56;;;;;;;0.50;0.50;;;;;;;;;;6229185;23;20027;-90
2023/12/04 02:15:22;;;;;;;0.50;0.50;;;;;;;;;;6203687;23;20020;-91
2023/12/04 02:17:48;;;;;;;0.50;0.50;;;;;;;;;;6202592;23;20102;-91
2023/12/04 02:20:14;;;;;;;0.50;0.50;;;;;;;;;;6203366;23;20066;-91
2023/12/04 02:22:41;;;;;;;0.50;0.50;;;;;;;;;;6203032;23;20048;-91
2023/12/04 02:25:08;;;;;;;0.50;0.50;;;;;;;;;;6202744;23;20487;-91
2023/12/04 02:27:50;;;;;;;0.57;0.57;;;;;;;;;;6179219;23;20017;-91
2023/12/04 02:30:18;;;;;;;0.52;0.52;;;;;;;;;;6203786;23;20117;-90
2023/12/04 02:32:48;;;;;;;0.50;0.50;;;;;;;;;;6203888;23;20021;-91
2023/12/04 02:35:15;;;;;;;0.50;0.50;;;;;;;;;;6204871;23;20020;-91
2023/12/04 02:37:41;;;;;;;0.50;0.50;;;;;;;;;;6204598;23;20017;-91
2023/12/04 02:40:08;;;;;;;0.50;0.50;;;;;;;;;;6228965;23;20023;-90
2023/12/04 02:42:34;;;;;;;0.50;0.50;;;;;;;;;;6204722;23;20047;-90
2023/12/04 02:45:01;;;;;;;0.50;0.50;;;;;;;;;;6204596;23;20100;-91
2023/12/04 02:47:27;;;;;;;0.50;0.50;;;;;;;;;;6229331;23;20087;-91
2023/12/04 02:49:55;;;;;;;0.60;0.60;;;;;;;;;;6205820;23;20022;-91
2023/12/04 02:52:24;;;;;;;0.50;0.50;;;;;;;;;;6229697;23;20447;-91
2023/12/04 02:54:50;;;;;;;0.50;0.50;;;;;;;;;;6231753;23;20023;-90
2023/12/04 02:57:16;;;;;;;0.60;0.60;;;;;;;;;;6229863;23;20017;-90
2023/12/04 02:59:42;;;;;;;0.45;0.45;;;;;;;;;;6232400;23;20012;-91
2023/12/04 03:02:08;;;;;;;0.50;0.50;;;;;;;;;;6206073;23;20017;-92
2023/12/04 03:04:35;;;;;;;0.50;0.50;;;;;;;;;;6205787;23;20012;-90
2023/12/04 03:07:01;;;;;;;0.55;0.55;;;;;;;;;;6206128;23;20017;-91
2023/12/04 03:09:30;;;;;;;0.50;0.50;;;;;;;;;;6207110;23;20020;-91
2023/12/04 03:11:56;;;;;;;0.50;0.50;;;;;;;;;;6232319;23;20076;-91
2023/12/04 03:14:25;;;;;;;0.50;0.50;;;;;;;;;;6230864;23;20047;-92
2023/12/04 03:16:51;;;;;;;0.50;0.50;;;;;;;;;;6229850;23;20013;-90
2023/12/04 03:19:17;;;;;;;0.50;0.50;;;;;;;;;;6205860;23;20012;-91
2023/12/04 03:21:43;;;;;;;0.50;0.50;;;;;;;;;;6207160;23;20008;-92
2023/12/04 03:24:09;;;;;;;0.50;0.50;;;;;;;;;;6232800;23;19997;-92
2023/12/04 03:26:35;;;;;;;0.50;0.50;;;;;;;;;;6208083;23;20012;-91
2023/12/04 03:29:03;;;;;;;0.50;0.50;;;;;;;;;;6209378;23;20095;-92
2023/12/04 03:31:30;;;;;;;0.55;0.55;;;;;;;;;;6183089;23;20024;-91
2023/12/04 03:33:59;;;;;;;0.57;0.57;;;;;;;;;;6208041;23;20043;-90
2023/12/04 03:36:25;;;;;;;0.50;0.50;;;;;;;;;;6208605;23;20027;-91
2023/12/04 03:38:51;;;;;;;0.50;0.50;;;;;;;;;;6234809;23;20063;-91
2023/12/04 03:41:18;;;;;;;0.50;0.50;;;;;;;;;;6206064;23;20081;-91
2023/12/04 03:43:44;;;;;;;0.50;0.50;;;;;;;;;;6205146;23;20001;-90
2023/12/04 03:46:10;;;;;;;0.50;0.50;;;;;;;;;;6207023;23;20021;-92
2023/12/04 03:48:36;;;;;;;0.50;0.50;;;;;;;;;;6207776;23;20020;-91
2023/12/04 03:51:02;;;;;;;0.50;0.50;;;;;;;;;;6205650;23;20020;-91
2023/12/04 03:53:35;;;;;;;0.50;0.50;;;;;;;;;;6259852;22;20035;-92
2023/12/04 03:56:02;;;;;;;0.50;0.50;;;;;;;;;;6236904;23;20031;-92
2023/12/04 03:58:28;;;;;;;0.50;0.50;;;;;;;;;;6238423;23;20072;-91
2023/12/04 04:00:58;;;;;;;0.50;0.50;;;;;;;;;;6264512;23;20431;-92
2023/12/04 04:03:24;;;;;;;0.50;0.50;;;;;;;;;;6239822;23;20020;-91
2023/12/04 04:05:50;;;;;;;0.50;0.50;;;;;;;;;;6240763;23;20000;-92
2023/12/04 04:08:17;;;;;;;0.55;0.55;;;;;;;;;;6265300;22;20008;-92
2023/12/04 04:10:43;;;;;;;0.50;0.50;;;;;;;;;;6239713;23;20016;-91
2023/12/04 04:13:09;;;;;;;0.50;0.50;;;;;;;;;;6238726;23;20023;-91
2023/12/04 04:15:35;;;;;;;0.50;0.50;;;;;;;;;;6265077;23;20087;-91
2023/12/04 04:18:01;;;;;;;0.50;0.50;;;;;;;;;;6264494;23;20030;-91
2023/12/04 04:20:27;;;;;;;0.50;0.50;;;;;;;;;;6241026;23;20016;-91
2023/12/04 04:22:54;;;;;;;0.50;0.50;;;;;;;;;;6240800;23;20007;-91
2023/12/04 04:25:22;;;;;;;0.50;0.50;;;;;;;;;;6265889;23;20035;-92
2023/12/04 04:27:48;;;;;;;0.50;0.50;;;;;;;;;;6239177;23;20011;-90
2023/12/04 04:30:17;;;;;;;0.57;0.57;;;;;;;;;;6237509;23;20016;-92
2023/12/04 04:32:46;;;;;;;0.60;0.60;;;;;;;;;;6240741;23;20020;-92
2023/12/04 04:35:13;;;;;;;0.50;0.50;;;;;;;;;;6264833;23;20016;-92
2023/12/04 04:37:39;;;;;;;0.50;0.50;;;;;;;;;;6241520;23;20000;-91
2023/12/04 04:40:06;;;;;;;0.50;0.50;;;;;;;;;;6240469;23;20019;-91
2023/12/04 04:42:32;;;;;;;0.55;0.55;;;;;;;;;;6240213;23;20016;-91
2023/12/04 04:45:02;;;;;;;0.50;0.50;;;;;;;;;;6266637;23;20016;-92
2023/12/04 04:47:32;;;;;;;0.50;0.50;;;;;;;;;;6266955;23;20027;-91
2023/12/04 04:49:58;;;;;;;0.50;0.50;;;;;;;;;;6240705;23;20043;-92
2023/12/04 04:52:24;;;;;;;0.50;0.50;;;;;;;;;;6237315;23;20050;-92
2023/12/04 04:54:50;;;;;;;0.50;0.50;;;;;;;;;;6267382;23;20027;-91
2023/12/04 04:59:52;;;;;;;0.50;0.50;;;;;;;;;;6241839;22;20024;-91
2023/12/04 05:04:56;;;;;;;0.50;0.50;;;;;;;;;;6240690;22;20020;-91
2023/12/04 05:15:11;;;;;;;0.50;0.50;;;;;;;;;;6267258;22;20020;-91
2023/12/04 05:17:37;;;;;;;0.50;0.50;;;;;;;;;;6240229;22;20023;-91
2023/12/04 05:20:03;;;;;;;0.50;0.50;;;;;;;;;;6243198;23;20047;-91
2023/12/04 05:22:29;;;;;;;0.45;0.45;;;;;;;;;;6241451;23;20042;-91
2023/12/04 05:25:01;;;;;;;0.50;0.50;;;;;;;;;;6241380;23;20016;-92
2023/12/04 05:27:27;;;;;;;0.50;0.50;;;;;;;;;;6265553;22;20028;-92
2023/12/04 05:29:57;;;;;;;0.50;0.50;;;;;;;;;;6268025;22;20044;-91
2023/12/04 05:32:23;;;;;;;0.50;0.50;;;;;;;;;;6241815;23;20016;-91
2023/12/04 05:34:49;;;;;;;0.50;0.50;;;;;;;;;;6267396;22;20036;-91
2023/12/04 05:37:17;;;;;;;0.50;0.50;;;;;;;;;;6238463;23;20020;-92
2023/12/04 05:39:47;;;;;;;0.50;0.50;;;;;;;;;;6263443;23;20321;-91
2023/12/04 05:42:13;;;;;;;0.50;0.50;;;;;;;;;;6239849;23;20008;-91
2023/12/04 05:44:39;;;;;;;0.50;0.50;;;;;;;;;;6239760;23;20013;-91
2023/12/04 05:47:07;;;;;;;0.50;0.50;;;;;;;;;;6261882;22;20024;-90
2023/12/04 05:49:34;;;;;;;0.50;0.50;;;;;;;;;;6239261;23;20000;-90
2023/12/04 05:52:00;;;;;;;0.50;0.50;;;;;;;;;;6263534;22;20040;-91
2023/12/04 05:54:26;;;;;;;0.50;0.50;;;;;;;;;;6238273;23;20060;-90
2023/12/04 05:56:53;;;;;;;0.50;0.50;;;;;;;;;;6238010;23;20039;-92
2023/12/04 05:59:19;;;;;;;0.40;0.40;;;;;;;;;;6265293;22;20064;-91
2023/12/04 06:01:45;;;;;;;0.40;0.40;;;;;;;;;;6234053;23;20058;-91
2023/12/04 06:04:11;;;;;;;0.50;0.50;;;;;;;;;;6265046;22;20011;-91
2023/12/04 06:06:39;;;;;;;0.50;0.50;;;;;;;;;;6237941;23;20046;-90
2023/12/04 06:09:10;;;;;;;0.50;0.50;;;;;;;;;;6237914;23;20020;-92
2023/12/04 06:11:37;;;;;;;0.60;0.60;;;;;;;;;;6238850;23;20016;-90
2023/12/04 06:14:03;;;;;;;0.50;0.50;;;;;;;;;;6238152;23;20004;-93
2023/12/04 06:16:29;;;;;;;0.43;0.43;;;;;;;;;;6238208;23;20016;-90
2023/12/04 06:18:55;;;;;;;0.50;0.50;;;;;;;;;;6237362;23;20034;-91
2023/12/04 06:21:21;;;;;;;0.43;0.43;;;;;;;;;;6261364;22;20060;-90
2023/12/04 06:23:49;;;;;;;0.47;0.47;;;;;;;;;;6262841;23;20023;-91
2023/12/04 06:26:17;;;;;;;0.50;0.50;;;;;;;;;;6238653;23;19996;-91
2023/12/04 06:28:56;;;;;;;0.50;0.50;;;;;;;;;;6236795;23;20012;-91
2023/12/04 06:31:25;;;;;;;0.50;0.50;;;;;;;;;;6261957;23;20087;-91
2023/12/04 06:33:51;;;;;;;0.50;0.50;;;;;;;;;;6241717;23;20015;-90
2023/12/04 06:36:24;;;;;;;0.50;0.50;;;;;;;;;;6239803;23;20011;-91
2023/12/04 06:39:12;;;;;;;0.50;0.50;;;;;;;;;;6261533;22;20055;-91
2023/12/04 06:41:43;;;;;;;0.50;0.50;;;;;;;;;;6265207;22;20011;-91
2023/12/04 06:44:12;;;;;;;0.50;0.50;;;;;;;;;;6204342;23;20005;-89
2023/12/04 06:46:39;;;;;;;0.50;0.50;;;;;;;;;;6231989;22;20010;-91
2023/12/04 06:49:06;;;;;;;0.50;0.50;;;;;;;;;;6240512;23;20023;-91
2023/12/04 06:51:32;;;;;;;0.50;0.50;;;;;;;;;;6215158;23;20016;-92
2023/12/04 06:53:59;;;;;;;0.50;0.50;;;;;;;;;;6237666;23;20054;-91
2023/12/04 06:56:30;;;;;;;0.50;0.50;;;;;;;;;;6263683;23;20023;-90
2023/12/04 06:58:56;;;;;;;0.50;0.50;;;;;;;;;;6216352;23;20003;-91
2023/12/04 07:01:24;;;;;;;0.50;0.50;;;;;;;;;;6237283;23;19996;-92
2023/12/04 07:03:51;;;;;;;0.52;0.52;;;;;;;;;;6241113;23;20016;-91
2023/12/04 07:06:17;;;;;;;0.50;0.50;;;;;;;;;;6266460;22;20065;-92
2023/12/04 07:08:44;;;;;;;0.50;0.50;;;;;;;;;;6240181;23;20020;-90
2023/12/04 07:11:32;;;;;;;0.52;0.52;;;;;;;;;;6264203;22;20377;-91
2023/12/04 07:14:01;;;;;;;0.50;0.50;;;;;;;;;;6240954;23;20004;-90
2023/12/04 07:16:28;;;;;;;0.50;0.50;;;;;;;;;;6239580;23;20020;-91
2023/12/04 07:18:54;;;;;;;0.50;0.50;;;;;;;;;;6238986;23;20000;-91
2023/12/04 07:21:21;;;;;;;0.50;0.50;;;;;;;;;;6265997;22;20000;-91
2023/12/04 07:24:06;;;;;;;0.50;0.50;;;;;;;;;;6268002;23;20010;-90
2023/12/04 07:26:34;;;;;;;0.50;0.50;;;;;;;;;;6241507;23;20035;-91
2023/12/04 07:29:00;;;;;;;0.50;0.50;;;;;;;;;;6242691;23;20026;-89
2023/12/04 07:31:29;;;;;;;0.50;0.50;;;;;;;;;;6237508;23;20012;-89
2023/12/04 07:33:55;;;;;;;0.50;0.50;;;;;;;;;;6269230;23;20004;-89
2023/12/04 07:36:27;;;;;;;0.60;0.60;;;;;;;;;;6242716;23;20016;-88
2023/12/04 07:38:56;;;;;;;0.50;0.50;;;;;;;;;;6242668;23;20348;-91
2023/12/04 07:41:25;;;;;;;0.50;0.50;;;;;;;;;;6267150;22;20015;-89
2023/12/04 07:44:08;;;;;;;0.52;0.52;;;;;;;;;;6266325;22;20020;-91
2023/12/04 07:46:38;;;;;;;0.50;0.50;;;;;;;;;;6241637;22;20026;-92
2023/12/04 07:49:17;;;;;;;0.50;0.50;;;;;;;;;;6243243;22;20044;-92
2023/12/04 07:51:43;;;;;;;0.50;0.50;;;;;;;;;;6243025;23;20008;-90
2023/12/04 07:54:25;;;;;;;;;;;;;;;;;;;;;
2023/12/04 07:57:00;;;;;;;0.50;0.50;;;;;;;;;;6270275;23;20008;-92
2023/12/04 07:59:26;;;;;;;0.50;0.50;;;;;;;;;;6258307;22;20023;-80
2023/12/04 08:01:59;;;;;;;0.57;0.57;;;;;;;;;;6231260;23;20043;-78
2023/12/04 08:04:25;;;;;;;0.50;0.50;;;;;;;;;;6258772;23;20104;-77
2023/12/04 08:06:52;;;;;;;0.50;0.50;;;;;;;;;;6260651;23;20020;-78
2023/12/04 08:09:20;;;;;;;0.50;0.50;;;;;;;;;;6230088;23;20028;-79
2023/12/04 08:11:47;;;;;;;0.50;0.50;;;;;;;;;;6258917;23;20020;-79
2023/12/04 08:14:13;;;;;;;0.45;0.45;;;;;;;;;;6259649;22;20006;-79
2023/12/04 08:16:39;;;;;;;0.40;0.40;;;;;;;;;;6231498;23;20012;-79
2023/12/04 08:19:05;;;;;;;0.50;0.50;;;;;;;;;;6232918;23;20069;-79
2023/12/04 08:21:32;;;;;;;0.50;0.50;;;;;;;;;;6233121;23;20016;-77
2023/12/04 08:24:07;;;;;;;0.43;0.43;;;;;;;;;;6213519;23;20019;-78
2023/12/04 08:26:33;;;;;;;0.50;0.50;;;;;;;;;;6233006;23;20016;-77
2023/12/04 08:28:59;;;;;;;0.40;0.40;;;;;;;;;;6235549;23;20012;-79
2023/12/04 08:31:25;;;;;;;0.50;0.50;;;;;;;;;;6229488;23;20027;-78
2023/12/04 08:33:55;;;;;;;0.50;0.50;;;;;;;;;;6231174;23;20081;-78
2023/12/04 08:36:21;;;;;;;0.50;0.50;;;;;;;;;;6257233;22;20022;-80
2023/12/04 08:38:54;;;;;;;0.50;0.50;;;;;;;;;;6260460;22;20035;-80
2023/12/04 08:41:21;;;;;;;0.50;0.50;;;;;;;;;;6260067;23;20373;-79
2023/12/04 08:47:10;;;;;;;0.50;0.50;;;;;;;;;;6277368;23;20011;-88
2023/12/04 08:49:44;;;;;;;0.52;0.52;;;;;;;;;;6241868;23;20020;-88
2023/12/04 08:52:11;;;;;;;0.50;0.50;;;;;;;;;;6240375;23;20020;-85
2023/12/04 09:01:45;;;;;;;0.50;0.50;;;;;;;;;;6275186;23;19995;-88
2023/12/04 09:04:12;;;;;;;0.50;0.50;;;;;;;;;;6268233;23;20084;-88
2023/12/04 09:06:45;;;;;;;0.45;0.45;;;;;;;;;;6266064;23;20055;-88
2023/12/04 09:09:15;;;;;;;0.50;0.50;;;;;;;;;;6267967;23;20019;-89
2023/12/04 09:11:44;;;;;;;0.50;0.50;;;;;;;;;;6241633;23;20013;-88
2023/12/04 09:14:17;;;;;;;0.40;0.40;;;;;;;;;;6267447;22;20047;-89
2023/12/04 09:16:47;;;;;;;0.50;0.50;;;;;;;;;;6237475;23;19996;-87
2023/12/04 09:19:16;;;;;;;0.50;0.50;;;;;;;;;;6241873;23;20016;-87
2023/12/04 09:21:49;;;;;;;0.50;0.50;;;;;;;;;;6240751;23;20020;-89
2023/12/04 09:24:16;;;;;;;0.50;0.50;;;;;;;;;;6264265;23;20027;-88
2023/12/04 09:26:45;;;;;;;0.50;0.50;;;;;;;;;;6260951;22;20012;-86
2023/12/04 09:29:30;;;;;;;0.43;0.43;;;;;;;;;;6236050;23;20044;-85
2023/12/04 09:31:56;;;;;;;0.50;0.50;;;;;;;;;;6235760;23;20008;-86
2023/12/04 09:34:22;;;;;;;0.50;0.50;;;;;;;;;;6261163;22;20016;-84
2023/12/04 09:36:48;;;;;;;0.50;0.50;;;;;;;;;;6261988;22;20106;-86
2023/12/04 09:39:20;;;;;;;0.70;0.70;;;;;;;;;;6240611;22;20000;-86
2023/12/04 09:41:47;;;;;;;0.50;0.50;;;;;;;;;;6238980;23;20039;-88
2023/12/04 09:44:14;;;;;;;0.50;0.50;;;;;;;;;;6264607;23;20083;-85
2023/12/04 09:46:41;;;;;;;0.70;0.70;;;;;;;;;;6234097;23;20012;-85
2023/12/04 09:49:10;;;;;;;0.50;0.50;;;;;;;;;;6240691;23;20111;-84
2023/12/04 09:51:38;;;;;;;0.50;0.50;;;;;;;;;;6263737;22;20036;-86
2023/12/04 09:54:04;;;;;;;0.50;0.50;;;;;;;;;;6265901;22;20012;-86
2023/12/04 09:56:34;;;;;;;0.50;0.50;;;;;;;;;;6265831;22;20019;-86
2023/12/04 09:59:01;;;;;;;0.40;0.40;;;;;;;;;;6264756;23;20008;-87
2023/12/04 10:04:49;;;;;;;0.40;0.40;;;;;;;;;;6277668;23;20007;-86
2023/12/04 10:07:16;;;;;;;0.50;0.50;;;;;;;;;;6239283;23;20023;-84
2023/12/04 10:09:44;;;;;;;0.50;0.50;;;;;;;;;;6262677;23;20055;-84
2023/12/04 10:12:11;;;;;;;0.50;0.50;;;;;;;;;;6238166;23;20023;-87
2023/12/04 10:14:42;;;;;;;0.50;0.50;;;;;;;;;;6267211;22;20020;-85
2023/12/04 10:17:18;;;;;;;0.50;0.50;;;;;;;;;;6266598;22;20019;-85
2023/12/04 10:19:45;;;;;;;0.45;0.45;;;;;;;;;;6264998;22;20012;-84
2023/12/04 10:22:14;;;;;;;0.50;0.50;;;;;;;;;;6240415;23;20016;-84
2023/12/04 10:24:41;;;;;;;0.50;0.50;;;;;;;;;;6268266;22;20125;-86
2023/12/04 10:27:11;;;;;;;0.50;0.50;;;;;;;;;;6244123;23;20030;-86
2023/12/04 10:29:43;;;;;;;0.50;0.50;;;;;;;;;;6263956;23;20043;-88
2023/12/04 10:35:36;;;;;;;0.47;0.47;;;;;;;;;;6280220;23;20334;-88
2023/12/04 10:38:04;;;;;;;0.50;0.50;;;;;;;;;;6270900;22;20052;-87
2023/12/04 10:40:35;;;;;;;0.50;0.50;;;;;;;;;;6243331;23;20020;-88
2023/12/04 10:59:12;;;;;;;0.50;0.50;;;;;;;;;;6271911;22;20015;-87
2023/12/04 11:01:47;;;;;;;0.50;0.50;;;;;;;;;;6245619;22;20094;-85
2023/12/04 11:04:17;;;;;;;0.47;0.47;;;;;;;;;;6248388;22;20043;-87
2023/12/04 11:06:48;;;;;;;0.50;0.50;;;;;;;;;;6273560;22;20024;-86
2023/12/04 11:09:21;;;;;;;0.50;0.50;;;;;;;;;;6250406;22;20010;-87
2023/12/04 11:11:51;;;;;;;0.50;0.50;;;;;;;;;;6274979;22;20073;-86
2023/12/04 11:14:19;;;;;;;0.50;0.50;;;;;;;;;;6247226;22;20049;-88
2023/12/04 11:16:57;;;;;;;0.50;0.50;;;;;;;;;;6247792;22;20069;-88
2023/12/04 11:19:42;;;;;;;0.50;0.50;;;;;;;;;;6248760;22;20050;-87
2023/12/04 11:22:17;;;;;;;0.40;0.40;;;;;;;;;;6246553;22;20431;-88
2023/12/04 11:24:45;;;;;;;0.40;0.40;;;;;;;;;;6248790;22;20016;-88
2023/12/04 11:27:22;;;;;;;0.50;0.50;;;;;;;;;;6276521;22;20038;-88
2023/12/04 11:29:51;;;;;;;0.50;0.50;;;;;;;;;;6249257;22;20012;-87
2023/12/04 11:32:27;;;;;;;0.50;0.50;;;;;;;;;;6248904;22;20016;-87
2023/12/04 11:34:57;;;;;;;1.05;1.00;;;;;;;;;;6271629;22;20016;-87
2023/12/04 11:37:28;;;;;;;0.50;0.50;;;;;;;;;;6251189;22;20015;-87
2023/12/04 11:40:03;;;;;;;0.50;0.50;;;;;;;;;;6250218;22;20030;-88
2023/12/04 11:42:32;;;;;;;0.50;0.50;;;;;;;;;;6251628;22;20020;-89
2023/12/04 11:45:00;;;;;;;0.50;0.50;;;;;;;;;;6296429;22;20067;-87
2023/12/04 11:50:08;;;;;;;0.50;0.50;;;;;;;;;;6261793;22;20099;-89
2023/12/04 12:04:23;;;;;;;0.50;0.50;;;;;;;;;;6283179;22;20068;-90
2023/12/04 12:07:12;;;;;;;0.50;0.50;;;;;;;;;;6270170;23;20016;-91
2023/12/04 12:09:49;;;;;;;0.50;0.50;;;;;;;;;;6270393;23;19996;-91
2023/12/04 12:15:38;;;;;;;0.50;0.50;;;;;;;;;;6280659;23;20019;-85
2023/12/04 12:18:15;;;;;;;0.40;0.40;;;;;;;;;;6241115;23;20017;-87
2023/12/04 12:20:41;;;;;;;0.50;0.50;;;;;;;;;;6240739;23;20031;-86
2023/12/04 12:23:08;;;;;;;0.50;0.50;;;;;;;;;;6242491;23;20016;-87
2023/12/04 12:25:35;;;;;;;0.75;0.75;;;;;;;;;;6244186;23;20019;-85
2023/12/04 12:28:06;;;;;;;0.40;0.40;;;;;;;;;;6242084;22;20007;-85
2023/12/04 12:30:33;;;;;;;0.40;0.40;;;;;;;;;;6238680;23;20022;-88
2023/12/04 12:32:59;;;;;;;0.50;0.50;;;;;;;;;;6267581;23;20047;-86
2023/12/04 12:35:27;;;;;;;0.50;0.50;;;;;;;;;;6265287;22;20071;-87
2023/12/04 12:38:03;;;;;;;0.50;0.50;;;;;;;;;;6241026;23;20075;-88
2023/12/04 12:40:29;;;;;;;0.50;0.50;;;;;;;;;;6237034;23;20027;-86
2023/12/04 12:43:05;;;;;;;;;;;;;;;;;;6241260;23;20055;-85
2023/12/04 12:45:40;;;;;;;0.50;0.50;;;;;;;;;;6268979;22;19960;-95
2023/12/04 13:14:13;;;;;;;0.50;0.50;;;;;;;;;;6269494;22;20024;-92
2023/12/04 13:16:40;;;;;;;0.50;0.50;;;;;;;;;;6218655;22;20020;-93
2023/12/04 13:24:57;;;;;;;0.50;0.50;;;;;;;;;;6292910;22;20007;-94
2023/12/04 13:27:23;;;;;;;0.50;0.50;;;;;;;;;;6240356;23;20050;-94
2023/12/04 13:32:26;;;;;;;0.50;0.50;;;;;;;;;;6260112;22;20071;-90
2023/12/04 13:34:55;;;;;;;0.50;0.50;;;;;;;;;;6240280;23;20034;-92
2023/12/04 13:37:25;;;;;;;0.40;0.40;;;;;;;;;;6265889;22;20397;-90
2023/12/04 13:39:57;;;;;;;0.50;0.50;;;;;;;;;;6236455;23;20020;-90
2023/12/04 13:45:13;;;;;;;0.50;0.50;;;;;;;;;;6266935;23;20020;-92
2023/12/04 13:47:39;;;;;;;0.50;0.50;;;;;;;;;;6241381;23;20324;-92
2023/12/04 13:50:08;;;;;;;0.50;0.50;;;;;;;;;;6240555;23;20052;-91
2023/12/04 13:52:38;;;;;;;0.50;0.50;;;;;;;;;;6242053;23;20054;-89
2023/12/04 13:55:14;;;;;;;0.50;0.50;;;;;;;;;;6214095;23;20007;-92
2023/12/04 13:58:07;;;;;;;0.75;0.75;;;;;;;;;;6239642;23;20070;-92
2023/12/04 14:00:35;;;;;;;0.50;0.50;;;;;;;;;;6265223;23;20024;-92
2023/12/04 14:03:17;;;;;;;0.50;0.50;;;;;;;;;;6238397;23;20011;-91
2023/12/04 14:05:45;;;;;;;0.50;0.50;;;;;;;;;;6263991;23;20064;-92
2023/12/04 14:08:16;;;;;;;0.50;0.50;;;;;;;;;;6240956;23;20031;-91
2023/12/04 14:10:51;;;;;;;0.60;0.60;;;;;;;;;;6263097;23;20012;-90
2023/12/04 14:13:20;;;;;;;0.50;0.50;;;;;;;;;;6235185;23;20027;-92
2023/12/04 14:15:48;;;;;;;0.70;0.70;;;;;;;;;;6259034;23;20100;-92
2023/12/04 14:18:23;;;;;;;0.50;0.50;;;;;;;;;;6234815;23;20020;-91
2023/12/04 14:20:51;;;;;;;0.50;0.50;;;;;;;;;;6233618;23;20012;-91
2023/12/04 14:23:20;;;;;;;0.57;0.57;;;;;;;;;;6260523;23;20347;-92
2023/12/04 14:25:46;;;;;;;0.50;0.50;;;;;;;;;;6234461;23;20020;-93
2023/12/04 14:28:14;;;;;;;0.50;0.50;;;;;;;;;;6234020;23;20016;-92
2023/12/04 14:30:40;;;;;;;0.50;0.50;;;;;;;;;;6235215;23;20020;-91
2023/12/04 14:33:06;;;;;;;0.50;0.50;;;;;;;;;;6260762;23;20020;-93
2023/12/04 14:35:43;;;;;;;0.50;0.50;;;;;;;;;;6235379;23;20016;-91
2023/12/04 14:38:09;;;;;;;0.50;0.50;;;;;;;;;;6263190;22;20005;-92
2023/12/04 14:40:35;;;;;;;0.50;0.50;;;;;;;;;;6236159;23;20076;-92
2023/12/04 14:43:01;;;;;;;0.50;0.50;;;;;;;;;;6260580;23;20357;-93
2023/12/04 14:45:28;;;;;;;0.40;0.40;;;;;;;;;;6261731;23;20055;-91
2023/12/04 14:47:56;;;;;;;0.50;0.50;;;;;;;;;;6237531;23;20056;-92
2023/12/04 14:50:30;;;;;;;0.50;0.50;;;;;;;;;;6258882;23;20350;-90
2023/12/04 14:52:59;;;;;;;0.40;0.40;;;;;;;;;;6234684;23;20004;-92
2023/12/04 15:04:46;;;;;;;0.50;0.50;;;;;;;;;;6263853;22;20016;-93
2023/12/04 15:15:11;;;;;;;0.50;0.50;;;;;;;;;;6257465;23;20095;-93
2023/12/04 15:17:48;;;;;;;0.60;0.60;;;;;;;;;;6259088;22;20016;-92
2023/12/04 15:22:53;;;;;;;0.50;0.50;;;;;;;;;;6259540;22;20019;-94
2023/12/04 15:25:19;;;;;;;0.50;0.50;;;;;;;;;;6231030;23;20375;-92
2023/12/04 15:27:46;;;;;;;0.50;0.50;;;;;;;;;;6231334;23;20042;-92
2023/12/04 15:30:13;;;;;;;0.50;0.50;;;;;;;;;;6257139;23;20083;-92
2023/12/04 15:32:39;;;;;;;1.70;1.60;;;;;;;;;;6232768;23;20016;-93
2023/12/04 15:35:06;;;;;;;0.50;0.50;;;;;;;;;;6259528;23;20024;-93
2023/12/04 15:37:32;;;;;;;0.60;0.60;;;;;;;;;;6229364;23;20020;-92
2023/12/04 15:39:58;;;;;;;0.50;0.50;;;;;;;;;;6230376;23;20023;-92
2023/12/04 15:42:38;;;;;;;0.50;0.50;;;;;;;;;;6230724;23;20018;-94
2023/12/04 15:45:04;;;;;;;0.50;0.50;;;;;;;;;;6231045;23;20402;-94
2023/12/04 15:47:30;;;;;;;0.50;0.50;;;;;;;;;;6231556;23;20072;-93
2023/12/04 15:49:57;;;;;;;0.50;0.50;;;;;;;;;;6257705;23;20016;-93
2023/12/04 15:52:26;;;;;;;1.13;1.08;;;;;;;;;;6228549;23;20462;-94
2023/12/04 15:54:55;;;;;;;0.50;0.50;;;;;;;;;;6231277;23;20047;-92
2023/12/04 15:57:39;;;;;;;0.50;0.50;;;;;;;;;;6229889;23;20024;-92
2023/12/04 16:00:16;;;;;;;0.50;0.50;;;;;;;;;;6226417;23;20009;-92
2023/12/04 16:02:42;;;;;;;0.50;0.50;;;;;;;;;;6230464;23;20058;-93
2023/12/04 16:05:11;;;;;;;0.50;0.50;;;;;;;;;;6227480;23;20080;-89
2023/12/04 16:07:37;;;;;;;0.50;0.50;;;;;;;;;;6226442;23;20071;-92
2023/12/04 16:10:06;;;;;;;0.50;0.50;;;;;;;;;;6228074;23;20015;-92
2023/12/04 16:12:32;;;;;;;1.02;0.98;;;;;;;;;;6253055;23;20039;-92
2023/12/04 16:14:58;;;;;;;0.50;0.50;;;;;;;;;;6252643;23;20024;-94
2023/12/04 16:17:24;;;;;;;0.50;0.50;;;;;;;;;;6254574;23;20416;-93
2023/12/04 16:19:51;;;;;;;0.55;0.55;;;;;;;;;;6230547;23;20014;-91
2023/12/04 16:22:17;;;;;;;0.50;0.50;;;;;;;;;;6203539;23;20072;-91
2023/12/04 16:24:44;;;;;;;0.50;0.50;;;;;;;;;;6228940;23;20066;-92
2023/12/04 16:27:10;;;;;;;0.50;0.50;;;;;;;;;;6230986;23;20020;-92
2023/12/04 16:29:37;;;;;;;0.50;0.50;;;;;;;;;;6264635;23;20030;-93
2023/12/04 16:32:04;;;;;;;0.50;0.50;;;;;;;;;;6255133;23;20011;-92
2023/12/04 16:34:30;;;;;;;0.50;0.50;;;;;;;;;;6230528;23;20016;-93
2023/12/04 16:36:56;;;;;;;0.50;0.50;;;;;;;;;;6231331;23;20012;-92
2023/12/04 16:39:28;;;;;;;0.50;0.50;;;;;;;;;;6234154;23;20012;-92
2023/12/04 16:41:55;;;;;;;0.52;0.52;;;;;;;;;;6211361;23;20012;-90
2023/12/04 16:44:22;;;;;;;0.50;0.50;;;;;;;;;;6260659;23;20071;-92
2023/12/04 16:46:54;;;;;;;0.50;0.50;;;;;;;;;;6211147;23;19997;-91
2023/12/04 16:49:25;;;;;;;0.50;0.50;;;;;;;;;;6266251;22;20000;-92
2023/12/04 16:51:51;;;;;;;0.50;0.50;;;;;;;;;;6240877;22;20077;-90
2023/12/04 16:54:18;;;;;;;0.50;0.50;;;;;;;;;;6268129;22;20000;-93
2023/12/04 16:56:44;;;;;;;0.50;0.50;;;;;;;;;;6241979;22;20020;-91